createdAt,value
2023-05-04T00:01:03.000Z,94.18
2023-05-04T00:02:07.000Z,94.49
2023-05-04T00:03:11.000Z,94.39
2023-05-04T00:04:14.000Z,94.08
2023-05-04T00:05:18.000Z,93.77
2023-05-04T00:06:22.000Z,93.56
2023-05-04T00:07:26.000Z,93.46
2023-05-04T00:08:29.000Z,93.4
2023-05-04T00:09:33.000Z,93.08
2023-05-04T00:10:37.000Z,92.88
2023-05-04T00:11:41.000Z,93.08
2023-05-04T00:12:44.000Z,93.08
2023-05-04T00:13:48.000Z,93.29
2023-05-04T00:14:52.000Z,93.6
2023-05-04T00:15:56.000Z,93.81
2023-05-04T00:16:59.000Z,93.6
2023-05-04T00:18:03.000Z,93.6
2023-05-04T00:19:07.000Z,93.71
2023-05-04T00:20:11.000Z,93.91
2023-05-04T00:21:14.000Z,93.91
2023-05-04T00:22:18.000Z,94.12
2023-05-04T00:23:22.000Z,94.95
2023-05-04T00:24:26.000Z,95.26
2023-05-04T00:25:29.000Z,95.89
2023-05-04T00:26:33.000Z,95.68
2023-05-04T00:27:37.000Z,95.26
2023-05-04T00:28:41.000Z,94.85
2023-05-04T00:29:44.000Z,94.54
2023-05-04T00:30:48.000Z,94.23
2023-05-04T00:31:52.000Z,93.91
2023-05-04T00:32:56.000Z,93.71
2023-05-04T00:34:00.000Z,94.02
2023-05-04T00:35:03.000Z,94.74
2023-05-04T00:36:07.000Z,94.64
2023-05-04T00:37:11.000Z,94.06
2023-05-04T00:38:15.000Z,93.65
2023-05-04T00:39:19.000Z,93.44
2023-05-04T00:40:22.000Z,93.33
2023-05-04T00:41:26.000Z,93.65
2023-05-04T00:42:30.000Z,93.23
2023-05-04T00:43:34.000Z,93.02
2023-05-04T00:44:38.000Z,92.97
2023-05-04T00:45:41.000Z,92.97
2023-05-04T00:46:45.000Z,93.07
2023-05-04T00:47:49.000Z,93.07
2023-05-04T00:48:53.000Z,93.07
2023-05-04T00:49:56.000Z,93.07
2023-05-04T00:51:00.000Z,93.28
2023-05-04T00:52:04.000Z,93.38
2023-05-04T00:53:08.000Z,93.38
2023-05-04T00:54:12.000Z,93.49
2023-05-04T00:55:15.000Z,93.84
2023-05-04T00:56:19.000Z,94.26
2023-05-04T00:57:23.000Z,94.67
2023-05-04T00:58:27.000Z,94.78
2023-05-04T00:59:31.000Z,94.98
2023-05-04T01:00:35.000Z,94.88
2023-05-04T01:01:38.000Z,94.67
2023-05-04T01:02:42.000Z,94.57
2023-05-04T01:03:46.000Z,94.46
2023-05-04T01:04:50.000Z,94.26
2023-05-04T01:05:53.000Z,94.26
2023-05-04T01:06:57.000Z,94.36
2023-05-04T01:08:01.000Z,94.26
2023-05-04T01:09:04.000Z,94.26
2023-05-04T01:10:08.000Z,94.26
2023-05-04T01:11:12.000Z,94.26
2023-05-04T01:12:16.000Z,94.3
2023-05-04T01:13:19.000Z,94.3
2023-05-04T01:14:23.000Z,94.2
2023-05-04T01:15:27.000Z,93.99
2023-05-04T01:16:31.000Z,94.09
2023-05-04T01:17:34.000Z,94.2
2023-05-04T01:18:38.000Z,94.4
2023-05-04T01:19:42.000Z,94.71
2023-05-04T01:20:46.000Z,94.71
2023-05-04T01:21:49.000Z,95.09
2023-05-04T01:22:53.000Z,95.03
2023-05-04T01:23:57.000Z,95.44
2023-05-04T01:25:01.000Z,95.75
2023-05-04T01:26:04.000Z,95.86
2023-05-04T01:27:08.000Z,95.96
2023-05-04T01:28:12.000Z,95.65
2023-05-04T01:29:16.000Z,95.23
2023-05-04T01:30:20.000Z,94.51
2023-05-04T01:31:23.000Z,93.51
2023-05-04T01:32:27.000Z,93.66
2023-05-04T01:33:31.000Z,94.43
2023-05-04T01:34:35.000Z,96.61
2023-05-04T01:35:39.000Z,98.01
2023-05-04T01:36:42.000Z,98.43
2023-05-04T01:37:46.000Z,98.63
2023-05-04T01:38:50.000Z,99.1
2023-05-04T01:39:54.000Z,98.94
2023-05-04T01:40:58.000Z,98.84
2023-05-04T01:42:01.000Z,98.84
2023-05-04T01:43:05.000Z,98.74
2023-05-04T01:44:09.000Z,98.53
2023-05-04T01:45:13.000Z,98.32
2023-05-04T01:46:17.000Z,98.11
2023-05-04T01:47:20.000Z,97.91
2023-05-04T01:48:24.000Z,97.28
2023-05-04T01:49:28.000Z,96.97
2023-05-04T01:50:32.000Z,96.76
2023-05-04T01:51:35.000Z,96.55
2023-05-04T01:52:39.000Z,96.34
2023-05-04T01:53:43.000Z,96.03
2023-05-04T01:54:47.000Z,95.83
2023-05-04T01:55:50.000Z,95.72
2023-05-04T01:56:54.000Z,95.51
2023-05-04T01:57:58.000Z,95.3
2023-05-04T01:59:02.000Z,95.09
2023-05-04T02:00:05.000Z,95.09
2023-05-04T02:01:09.000Z,95.09
2023-05-04T02:02:13.000Z,95.3
2023-05-04T02:03:17.000Z,95.4
2023-05-04T02:04:20.000Z,95.51
2023-05-04T02:05:24.000Z,95.72
2023-05-04T02:06:28.000Z,96.34
2023-05-04T02:07:32.000Z,96.92
2023-05-04T02:08:35.000Z,97.13
2023-05-04T02:09:39.000Z,97.03
2023-05-04T02:10:43.000Z,96.82
2023-05-04T02:11:47.000Z,96.72
2023-05-04T02:12:50.000Z,96.72
2023-05-04T02:13:54.000Z,96.72
2023-05-04T02:14:58.000Z,96.51
2023-05-04T02:16:02.000Z,96.3
2023-05-04T02:17:05.000Z,96.09
2023-05-04T02:18:09.000Z,96.09
2023-05-04T02:19:13.000Z,96.72
2023-05-04T02:20:17.000Z,96.24
2023-05-04T02:21:21.000Z,96.33
2023-05-04T02:22:24.000Z,96.85
2023-05-04T02:23:28.000Z,97.37
2023-05-04T02:24:32.000Z,97.37
2023-05-04T02:25:36.000Z,97.58
2023-05-04T02:26:40.000Z,98.1
2023-05-04T02:27:43.000Z,98.31
2023-05-04T02:28:47.000Z,98.62
2023-05-04T02:29:51.000Z,99.24
2023-05-04T02:30:55.000Z,99.55
2023-05-04T02:31:59.000Z,99.81
2023-05-04T02:33:02.000Z,99.76
2023-05-04T02:34:06.000Z,99.66
2023-05-04T02:35:10.000Z,99.66
2023-05-04T02:36:14.000Z,99.98
2023-05-04T02:37:18.000Z,99.98
2023-05-04T02:38:21.000Z,99.91
2023-05-04T02:39:25.000Z,99.98
2023-05-04T02:40:29.000Z,99.76
2023-05-04T02:41:33.000Z,99.55
2023-05-04T02:42:36.000Z,99.24
2023-05-04T02:43:40.000Z,98.93
2023-05-04T02:44:44.000Z,98.62
2023-05-04T02:45:48.000Z,98.31
2023-05-04T02:46:51.000Z,97.99
2023-05-04T02:47:55.000Z,97.68
2023-05-04T02:48:59.000Z,97.37
2023-05-04T02:50:03.000Z,97.06
2023-05-04T02:51:06.000Z,96.59
2023-05-04T02:52:10.000Z,96.39
2023-05-04T02:53:14.000Z,96.08
2023-05-04T02:54:18.000Z,95.87
2023-05-04T02:55:21.000Z,95.7
2023-05-04T02:56:25.000Z,96.95
2023-05-04T02:57:29.000Z,97.16
2023-05-04T02:58:33.000Z,97.06
2023-05-04T02:59:36.000Z,97.06
2023-05-04T03:00:40.000Z,97.16
2023-05-04T03:01:44.000Z,96.85
2023-05-04T03:02:48.000Z,96.64
2023-05-04T03:03:51.000Z,96.53
2023-05-04T03:04:55.000Z,96.33
2023-05-04T03:05:59.000Z,96.22
2023-05-04T03:07:03.000Z,96.22
2023-05-04T03:08:06.000Z,96.43
2023-05-04T03:09:10.000Z,96.75
2023-05-04T03:10:14.000Z,96.95
2023-05-04T03:11:18.000Z,97.27
2023-05-04T03:12:21.000Z,97.58
2023-05-04T03:13:25.000Z,97.99
2023-05-04T03:14:29.000Z,98.31
2023-05-04T03:15:33.000Z,98.52
2023-05-04T03:16:37.000Z,98.83
2023-05-04T03:17:40.000Z,99.1
2023-05-04T03:18:44.000Z,99.2
2023-05-04T03:19:48.000Z,99.2
2023-05-04T03:20:52.000Z,99.3
2023-05-04T03:21:56.000Z,99.2
2023-05-04T03:23:00.000Z,99.1
2023-05-04T03:24:03.000Z,98.99
2023-05-04T03:25:07.000Z,98.88
2023-05-04T03:26:11.000Z,98.68
2023-05-04T03:27:15.000Z,98.68
2023-05-04T03:28:18.000Z,98.57
2023-05-04T03:29:22.000Z,98.57
2023-05-04T03:30:26.000Z,98.68
2023-05-04T03:31:30.000Z,98.99
2023-05-04T03:32:34.000Z,99.1
2023-05-04T03:33:37.000Z,98.94
2023-05-04T03:34:41.000Z,98.74
2023-05-04T03:35:45.000Z,98.53
2023-05-04T03:36:49.000Z,98.53
2023-05-04T03:37:53.000Z,98.53
2023-05-04T03:38:56.000Z,98.43
2023-05-04T03:40:00.000Z,98.22
2023-05-04T03:41:04.000Z,98.01
2023-05-04T03:42:08.000Z,97.7
2023-05-04T03:43:12.000Z,97.49
2023-05-04T03:44:15.000Z,97.07
2023-05-04T03:45:19.000Z,96.55
2023-05-04T03:46:23.000Z,96.03
2023-05-04T03:47:27.000Z,95.83
2023-05-04T03:48:30.000Z,95.62
2023-05-04T03:49:34.000Z,95.62
2023-05-04T03:50:38.000Z,95.72
2023-05-04T03:51:42.000Z,95.93
2023-05-04T03:52:45.000Z,96.03
2023-05-04T03:53:49.000Z,95.89
2023-05-04T03:54:53.000Z,95.78
2023-05-04T03:55:57.000Z,95.4
2023-05-04T03:57:00.000Z,95.72
2023-05-04T03:58:04.000Z,96.08
2023-05-04T03:59:08.000Z,96.64
2023-05-04T04:00:12.000Z,97.27
2023-05-04T04:01:15.000Z,97.62
2023-05-04T04:02:19.000Z,97.68
2023-05-04T04:03:23.000Z,97.78
2023-05-04T04:04:27.000Z,97.78
2023-05-04T04:05:30.000Z,97.64
2023-05-04T04:06:34.000Z,97.53
2023-05-04T04:07:38.000Z,97.43
2023-05-04T04:08:42.000Z,97.17
2023-05-04T04:09:45.000Z,96.76
2023-05-04T04:10:49.000Z,96.45
2023-05-04T04:11:53.000Z,95.99
2023-05-04T04:12:57.000Z,95.67
2023-05-04T04:14:01.000Z,95.59
2023-05-04T04:15:04.000Z,95.15
2023-05-04T04:16:08.000Z,93.56
2023-05-04T04:17:12.000Z,88.2
2023-05-04T04:18:16.000Z,85.53
2023-05-04T04:19:20.000Z,84.05
2023-05-04T04:20:24.000Z,82.15
2023-05-04T04:21:27.000Z,81.63
2023-05-04T04:22:31.000Z,81.46
2023-05-04T04:23:35.000Z,82.84
2023-05-04T04:24:39.000Z,83.36
2023-05-04T04:25:42.000Z,83.09
2023-05-04T04:26:46.000Z,83.5
2023-05-04T04:27:50.000Z,83.71
2023-05-04T04:28:54.000Z,83.81
2023-05-04T04:29:58.000Z,84.01
2023-05-04T04:31:02.000Z,84.64
2023-05-04T04:32:05.000Z,85.3
2023-05-04T04:33:09.000Z,86.13
2023-05-04T04:34:13.000Z,85.92
2023-05-04T04:35:17.000Z,85.44
2023-05-04T04:36:21.000Z,85.65
2023-05-04T04:37:25.000Z,86.07
2023-05-04T04:38:28.000Z,86.17
2023-05-04T04:39:32.000Z,86.58
2023-05-04T04:40:36.000Z,87.1
2023-05-04T04:41:40.000Z,87.2
2023-05-04T04:42:43.000Z,87.51
2023-05-04T04:43:47.000Z,89.48
2023-05-04T04:44:51.000Z,89.69
2023-05-04T04:45:55.000Z,89.79
2023-05-04T04:46:58.000Z,89.28
2023-05-04T04:48:02.000Z,88.65
2023-05-04T04:49:06.000Z,88.76
2023-05-04T04:50:10.000Z,89.54
2023-05-04T04:51:13.000Z,90.26
2023-05-04T04:52:17.000Z,90.16
2023-05-04T04:53:21.000Z,91.2
2023-05-04T04:54:25.000Z,91.41
2023-05-04T04:55:28.000Z,91.36
2023-05-04T04:56:32.000Z,91.36
2023-05-04T04:57:36.000Z,91.67
2023-05-04T04:58:40.000Z,91.47
2023-05-04T04:59:43.000Z,91.36
2023-05-04T05:00:47.000Z,91.32
2023-05-04T05:01:51.000Z,90.91
2023-05-04T05:02:55.000Z,89.87
2023-05-04T05:03:59.000Z,89.52
2023-05-04T05:05:02.000Z,89.73
2023-05-04T05:06:06.000Z,89.52
2023-05-04T05:07:10.000Z,89.83
2023-05-04T05:08:14.000Z,90.14
2023-05-04T05:09:18.000Z,90.1
2023-05-04T05:10:21.000Z,89.48
2023-05-04T05:11:25.000Z,89.48
2023-05-04T05:12:29.000Z,89.65
2023-05-04T05:13:32.000Z,89.54
2023-05-04T05:14:36.000Z,88.89
2023-05-04T05:15:40.000Z,87.85
2023-05-04T05:16:44.000Z,88.37
2023-05-04T05:17:48.000Z,88.57
2023-05-04T05:18:51.000Z,88.89
2023-05-04T05:19:55.000Z,88.16
2023-05-04T05:20:59.000Z,88.16
2023-05-04T05:22:03.000Z,87.95
2023-05-04T05:23:06.000Z,88.16
2023-05-04T05:24:10.000Z,88.26
2023-05-04T05:25:14.000Z,88.12
2023-05-04T05:26:18.000Z,88.12
2023-05-04T05:27:21.000Z,87.81
2023-05-04T05:28:25.000Z,87.71
2023-05-04T05:29:29.000Z,87.81
2023-05-04T05:30:33.000Z,87.81
2023-05-04T05:31:36.000Z,87.71
2023-05-04T05:32:40.000Z,87.87
2023-05-04T05:33:44.000Z,87.77
2023-05-04T05:34:48.000Z,87.87
2023-05-04T05:35:51.000Z,87.98
2023-05-04T05:36:55.000Z,87.93
2023-05-04T05:37:59.000Z,87.93
2023-05-04T05:39:03.000Z,87.52
2023-05-04T05:40:07.000Z,87.32
2023-05-04T05:41:10.000Z,87.73
2023-05-04T05:42:14.000Z,87.52
2023-05-04T05:43:18.000Z,87.73
2023-05-04T05:44:22.000Z,87.17
2023-05-04T05:45:25.000Z,86.87
2023-05-04T05:46:29.000Z,86.55
2023-05-04T05:47:33.000Z,86.31
2023-05-04T05:48:37.000Z,86.41
2023-05-04T05:49:40.000Z,86.61
2023-05-04T05:50:44.000Z,86.72
2023-05-04T05:51:48.000Z,86.21
2023-05-04T05:52:52.000Z,86.37
2023-05-04T05:53:56.000Z,86.58
2023-05-04T05:54:59.000Z,85.71
2023-05-04T05:56:03.000Z,85.51
2023-05-04T05:57:07.000Z,85.1
2023-05-04T05:58:11.000Z,85.71
2023-05-04T05:59:15.000Z,85.92
2023-05-04T06:00:18.000Z,86.33
2023-05-04T06:01:22.000Z,86.43
2023-05-04T06:02:26.000Z,86.13
2023-05-04T06:03:30.000Z,85.68
2023-05-04T06:04:33.000Z,85.68
2023-05-04T06:05:37.000Z,85.57
2023-05-04T06:06:41.000Z,85.06
2023-05-04T06:07:45.000Z,84.95
2023-05-04T06:08:49.000Z,84.91
2023-05-04T06:09:52.000Z,84.3
2023-05-04T06:10:56.000Z,84.4
2023-05-04T06:12:00.000Z,84.05
2023-05-04T06:13:04.000Z,83.75
2023-05-04T06:14:08.000Z,83.13
2023-05-04T06:15:12.000Z,83.23
2023-05-04T06:16:15.000Z,83.4
2023-05-04T06:17:19.000Z,83.5
2023-05-04T06:18:23.000Z,84.12
2023-05-04T06:19:27.000Z,83.67
2023-05-04T06:20:30.000Z,82.54
2023-05-04T06:21:34.000Z,81.51
2023-05-04T06:22:38.000Z,81.3
2023-05-04T06:23:42.000Z,80.55
2023-05-04T06:24:45.000Z,80.35
2023-05-04T06:25:49.000Z,79.83
2023-05-04T06:26:53.000Z,79.83
2023-05-04T06:27:56.000Z,80.24
2023-05-04T06:29:00.000Z,79.9
2023-05-04T06:30:04.000Z,79.38
2023-05-04T06:31:08.000Z,78.77
2023-05-04T06:32:11.000Z,78.32
2023-05-04T06:33:15.000Z,78.42
2023-05-04T06:34:19.000Z,78.12
2023-05-04T06:35:23.000Z,78.08
2023-05-04T06:36:26.000Z,77.26
2023-05-04T06:37:30.000Z,77.06
2023-05-04T06:38:34.000Z,77.12
2023-05-04T06:39:38.000Z,77.53
2023-05-04T06:40:41.000Z,78.05
2023-05-04T06:41:45.000Z,77.53
2023-05-04T06:42:49.000Z,77.09
2023-05-04T06:43:53.000Z,77.19
2023-05-04T06:44:56.000Z,77.91
2023-05-04T06:46:00.000Z,76.88
2023-05-04T06:47:04.000Z,77.19
2023-05-04T06:48:08.000Z,76.17
2023-05-04T06:49:12.000Z,76.43
2023-05-04T06:50:15.000Z,77.05
2023-05-04T06:51:19.000Z,77.36
2023-05-04T06:52:23.000Z,75.48
2023-05-04T06:53:27.000Z,74.87
2023-05-04T06:54:31.000Z,74.97
2023-05-04T06:55:34.000Z,76.71
2023-05-04T06:56:38.000Z,76.57
2023-05-04T06:57:42.000Z,74.93
2023-05-04T06:58:46.000Z,74.76
2023-05-04T06:59:49.000Z,75.34
2023-05-04T07:00:53.000Z,75.14
2023-05-04T07:01:57.000Z,75.65
2023-05-04T07:03:01.000Z,75.71
2023-05-04T07:04:05.000Z,76.74
2023-05-04T07:05:08.000Z,76.33
2023-05-04T07:06:12.000Z,76.09
2023-05-04T07:07:16.000Z,74.97
2023-05-04T07:08:20.000Z,74.87
2023-05-04T07:09:24.000Z,74.66
2023-05-04T07:10:28.000Z,75.58
2023-05-04T07:11:32.000Z,75.99
2023-05-04T07:12:35.000Z,75.24
2023-05-04T07:13:39.000Z,75.99
2023-05-04T07:14:43.000Z,74.46
2023-05-04T07:15:47.000Z,74.83
2023-05-04T07:16:50.000Z,75.24
2023-05-04T07:17:54.000Z,74.66
2023-05-04T07:18:58.000Z,74.97
2023-05-04T07:20:02.000Z,75.58
2023-05-04T07:21:05.000Z,76.4
2023-05-04T07:22:09.000Z,77.28
2023-05-04T07:23:13.000Z,76.67
2023-05-04T07:24:17.000Z,75.13
2023-05-04T07:25:20.000Z,76.12
2023-05-04T07:26:24.000Z,76.73
2023-05-04T07:27:28.000Z,76.26
2023-05-04T07:28:32.000Z,76.84
2023-05-04T07:29:35.000Z,76.32
2023-05-04T07:30:39.000Z,75.68
2023-05-04T07:31:43.000Z,76.29
2023-05-04T07:32:47.000Z,75.68
2023-05-04T07:33:50.000Z,76.39
2023-05-04T07:34:54.000Z,75.54
2023-05-04T07:35:58.000Z,73.5
2023-05-04T07:37:02.000Z,74.11
2023-05-04T07:38:05.000Z,74.62
2023-05-04T07:39:09.000Z,76.15
2023-05-04T07:40:13.000Z,72.89
2023-05-04T07:41:17.000Z,73.91
2023-05-04T07:42:20.000Z,75.51
2023-05-04T07:43:24.000Z,74.38
2023-05-04T07:44:28.000Z,73.47
2023-05-04T07:45:32.000Z,74.86
2023-05-04T07:46:36.000Z,73.94
2023-05-04T07:47:39.000Z,72.99
2023-05-04T07:48:43.000Z,71.43
2023-05-04T07:49:47.000Z,71.33
2023-05-04T07:50:51.000Z,68.41
2023-05-04T07:51:54.000Z,69.63
2023-05-04T07:52:58.000Z,69.26
2023-05-04T07:54:02.000Z,69.56
2023-05-04T07:55:06.000Z,70.78
2023-05-04T07:56:10.000Z,71.19
2023-05-04T07:57:14.000Z,70.75
2023-05-04T07:58:17.000Z,70.14
2023-05-04T07:59:21.000Z,69.9
2023-05-04T08:00:25.000Z,68.92
2023-05-04T08:01:29.000Z,70.21
2023-05-04T08:02:32.000Z,69.97
2023-05-04T08:03:36.000Z,70.04
2023-05-04T08:04:40.000Z,68.41
2023-05-04T08:05:44.000Z,69.81
2023-05-04T08:06:48.000Z,70.52
2023-05-04T08:07:52.000Z,69.81
2023-05-04T08:08:55.000Z,68.35
2023-05-04T08:09:59.000Z,69.06
2023-05-04T08:11:03.000Z,68.35
2023-05-04T08:12:07.000Z,67.84
2023-05-04T08:13:11.000Z,68.35
2023-05-04T08:14:14.000Z,70.55
2023-05-04T08:15:18.000Z,67.1
2023-05-04T08:16:22.000Z,68.83
2023-05-04T08:17:26.000Z,65.2
2023-05-04T08:18:29.000Z,65.41
2023-05-04T08:19:33.000Z,68.79
2023-05-04T08:20:37.000Z,65.74
2023-05-04T08:21:40.000Z,65.94
2023-05-04T08:22:44.000Z,66.05
2023-05-04T08:23:48.000Z,66.15
2023-05-04T08:24:52.000Z,66.72
2023-05-04T08:25:55.000Z,67.0
2023-05-04T08:26:59.000Z,67.91
2023-05-04T08:28:03.000Z,68.32
2023-05-04T08:29:07.000Z,67.68
2023-05-04T08:30:10.000Z,67.34
2023-05-04T08:31:14.000Z,70.52
2023-05-04T08:32:18.000Z,67.79
2023-05-04T08:33:22.000Z,68.06
2023-05-04T08:34:26.000Z,66.44
2023-05-04T08:35:29.000Z,66.5
2023-05-04T08:36:33.000Z,64.86
2023-05-04T08:37:37.000Z,62.02
2023-05-04T08:38:41.000Z,63.67
2023-05-04T08:39:45.000Z,61.68
2023-05-04T08:40:48.000Z,64.11
2023-05-04T08:41:52.000Z,65.42
2023-05-04T08:42:56.000Z,62.59
2023-05-04T08:44:00.000Z,61.35
2023-05-04T08:45:04.000Z,62.15
2023-05-04T08:46:07.000Z,64.15
2023-05-04T08:47:11.000Z,60.98
2023-05-04T08:48:15.000Z,56.15
2023-05-04T08:49:19.000Z,57.4
2023-05-04T08:50:23.000Z,61.95
2023-05-04T08:51:26.000Z,58.38
2023-05-04T08:52:30.000Z,61.76
2023-05-04T08:53:34.000Z,60.22
2023-05-04T08:54:37.000Z,59.56
2023-05-04T08:55:41.000Z,54.41
2023-05-04T08:56:45.000Z,55.34
2023-05-04T08:57:49.000Z,62.92
2023-05-04T08:58:52.000Z,57.49
2023-05-04T08:59:56.000Z,59.21
2023-05-04T09:01:00.000Z,58.27
2023-05-04T09:02:04.000Z,57.56
2023-05-04T09:03:07.000Z,59.18
2023-05-04T09:04:11.000Z,59.03
2023-05-04T09:05:15.000Z,56.96
2023-05-04T09:06:19.000Z,60.14
2023-05-04T09:07:22.000Z,58.7
2023-05-04T09:08:26.000Z,59.81
2023-05-04T09:09:30.000Z,58.3
2023-05-04T09:10:34.000Z,59.91
2023-05-04T09:11:38.000Z,59.11
2023-05-04T09:12:41.000Z,60.32
2023-05-04T09:13:45.000Z,57.69
2023-05-04T09:14:49.000Z,58.7
2023-05-04T09:15:53.000Z,57.09
2023-05-04T09:16:57.000Z,56.58
2023-05-04T09:18:00.000Z,56.48
2023-05-04T09:19:04.000Z,54.1
2023-05-04T09:20:08.000Z,55.77
2023-05-04T09:21:12.000Z,55.16
2023-05-04T09:22:16.000Z,56.55
2023-05-04T09:23:19.000Z,52.82
2023-05-04T09:24:23.000Z,54.25
2023-05-04T09:25:27.000Z,55.77
2023-05-04T09:26:31.000Z,53.02
2023-05-04T09:27:35.000Z,60.55
2023-05-04T09:28:38.000Z,56.7
2023-05-04T09:29:42.000Z,55.74
2023-05-04T09:30:46.000Z,50.35
2023-05-04T09:31:50.000Z,50.73
2023-05-04T09:32:53.000Z,51.92
2023-05-04T09:33:57.000Z,53.59
2023-05-04T09:35:01.000Z,45.84
2023-05-04T09:36:05.000Z,48.53
2023-05-04T09:37:08.000Z,50.04
2023-05-04T09:38:12.000Z,50.94
2023-05-04T09:39:16.000Z,50.13
2023-05-04T09:40:20.000Z,45.2
2023-05-04T09:41:23.000Z,46.28
2023-05-04T09:42:27.000Z,49.46
2023-05-04T09:43:31.000Z,48.64
2023-05-04T09:44:35.000Z,44.43
2023-05-04T09:45:38.000Z,41.75
2023-05-04T09:46:42.000Z,43.94
2023-05-04T09:47:46.000Z,50.31
2023-05-04T09:48:50.000Z,51.01
2023-05-04T09:49:53.000Z,45.26
2023-05-04T09:50:57.000Z,48.48
2023-05-04T09:52:01.000Z,47.45
2023-05-04T09:53:05.000Z,47.63
2023-05-04T09:54:08.000Z,46.53
2023-05-04T09:55:12.000Z,43.22
2023-05-04T09:56:16.000Z,41.75
2023-05-04T09:57:20.000Z,43.16
2023-05-04T09:58:23.000Z,45.37
2023-05-04T09:59:27.000Z,47.83
2023-05-04T10:00:31.000Z,48.81
2023-05-04T10:01:35.000Z,46.41
2023-05-04T10:02:39.000Z,47.5
2023-05-04T10:03:42.000Z,46.3
2023-05-04T10:04:46.000Z,45.08
2023-05-04T10:05:50.000Z,45.84
2023-05-04T10:06:54.000Z,49.22
2023-05-04T10:07:58.000Z,44.37
2023-05-04T10:09:01.000Z,47.2
2023-05-04T10:10:05.000Z,45.78
2023-05-04T10:11:09.000Z,49.76
2023-05-04T10:12:13.000Z,50.38
2023-05-04T10:13:17.000Z,48.87
2023-05-04T10:14:20.000Z,49.93
2023-05-04T10:15:24.000Z,49.53
2023-05-04T10:16:28.000Z,47.02
2023-05-04T10:17:32.000Z,46.61
2023-05-04T10:18:36.000Z,49.58
2023-05-04T10:19:39.000Z,49.3
2023-05-04T10:20:43.000Z,46.49
2023-05-04T10:21:47.000Z,47.02
2023-05-04T10:22:51.000Z,48.14
2023-05-04T10:23:54.000Z,47.43
2023-05-04T10:24:58.000Z,47.63
2023-05-04T10:26:02.000Z,54.63
2023-05-04T10:27:06.000Z,49.48
2023-05-04T10:28:09.000Z,50.15
2023-05-04T10:29:13.000Z,53.72
2023-05-04T10:30:17.000Z,54.9
2023-05-04T10:31:20.000Z,53.05
2023-05-04T10:32:24.000Z,52.01
2023-05-04T10:33:28.000Z,44.9
2023-05-04T10:34:32.000Z,46.47
2023-05-04T10:35:36.000Z,51.99
2023-05-04T10:36:39.000Z,52.19
2023-05-04T10:37:43.000Z,48.98
2023-05-04T10:38:47.000Z,49.74
2023-05-04T10:39:51.000Z,47.75
2023-05-04T10:40:54.000Z,50.24
2023-05-04T10:41:58.000Z,48.71
2023-05-04T10:43:02.000Z,47.26
2023-05-04T10:44:06.000Z,46.94
2023-05-04T10:45:09.000Z,46.94
2023-05-04T10:46:13.000Z,45.26
2023-05-04T10:47:17.000Z,45.46
2023-05-04T10:48:21.000Z,47.06
2023-05-04T10:49:24.000Z,47.34
2023-05-04T10:50:28.000Z,42.11
2023-05-04T10:51:32.000Z,42.13
2023-05-04T10:52:36.000Z,42.63
2023-05-04T10:53:40.000Z,46.77
2023-05-04T10:54:43.000Z,46.89
2023-05-04T10:55:47.000Z,49.83
2023-05-04T10:56:51.000Z,51.87
2023-05-04T10:57:55.000Z,47.96
2023-05-04T10:58:58.000Z,50.01
2023-05-04T11:00:02.000Z,51.09
2023-05-04T11:01:06.000Z,51.07
2023-05-04T11:02:10.000Z,43.43
2023-05-04T11:03:14.000Z,46.75
2023-05-04T11:04:17.000Z,47.12
2023-05-04T11:05:21.000Z,47.92
2023-05-04T11:06:25.000Z,50.29
2023-05-04T11:07:29.000Z,48.01
2023-05-04T11:08:33.000Z,46.38
2023-05-04T11:09:36.000Z,48.74
2023-05-04T11:10:40.000Z,43.82
2023-05-04T11:11:44.000Z,48.27
2023-05-04T11:12:48.000Z,45.17
2023-05-04T11:13:52.000Z,44.71
2023-05-04T11:14:55.000Z,45.64
2023-05-04T11:15:59.000Z,44.08
2023-05-04T11:17:03.000Z,47.06
2023-05-04T11:18:07.000Z,49.62
2023-05-04T11:19:10.000Z,48.47
2023-05-04T11:20:14.000Z,50.97
2023-05-04T11:21:18.000Z,46.99
2023-05-04T11:22:21.000Z,46.01
2023-05-04T11:23:25.000Z,43.74
2023-05-04T11:24:29.000Z,47.08
2023-05-04T11:25:33.000Z,47.11
2023-05-04T11:26:36.000Z,47.55
2023-05-04T11:27:40.000Z,49.33
2023-05-04T11:28:44.000Z,50.81
2023-05-04T11:29:48.000Z,45.5
2023-05-04T11:30:51.000Z,47.17
2023-05-04T11:31:55.000Z,49.18
2023-05-04T11:32:59.000Z,53.22
2023-05-04T11:34:03.000Z,46.59
2023-05-04T11:35:06.000Z,48.3
2023-05-04T11:36:10.000Z,53.97
2023-05-04T11:37:14.000Z,48.58
2023-05-04T11:38:18.000Z,46.68
2023-05-04T11:39:21.000Z,47.0
2023-05-04T11:40:25.000Z,49.93
2023-05-04T11:41:29.000Z,47.73
2023-05-04T11:42:33.000Z,47.71
2023-05-04T11:43:36.000Z,44.98
2023-05-04T11:44:40.000Z,45.26
2023-05-04T11:45:44.000Z,48.94
2023-05-04T11:46:48.000Z,48.32
2023-05-04T11:47:52.000Z,49.52
2023-05-04T11:48:55.000Z,47.3
2023-05-04T11:49:59.000Z,45.97
2023-05-04T11:51:03.000Z,45.47
2023-05-04T11:52:07.000Z,46.09
2023-05-04T11:53:11.000Z,44.74
2023-05-04T11:54:14.000Z,44.58
2023-05-04T11:55:18.000Z,45.02
2023-05-04T11:56:22.000Z,47.11
2023-05-04T11:57:26.000Z,45.75
2023-05-04T11:58:30.000Z,44.84
2023-05-04T11:59:33.000Z,48.08
2023-05-04T12:00:37.000Z,51.49
2023-05-04T12:01:41.000Z,50.21
2023-05-04T12:02:45.000Z,48.28
2023-05-04T12:03:49.000Z,45.76
2023-05-04T12:04:52.000Z,48.72
2023-05-04T12:05:56.000Z,48.37
2023-05-04T12:07:00.000Z,44.25
2023-05-04T12:08:04.000Z,44.57
2023-05-04T12:09:07.000Z,47.27
2023-05-04T12:10:11.000Z,42.74
2023-05-04T12:11:15.000Z,42.13
2023-05-04T12:12:19.000Z,43.26
2023-05-04T12:13:22.000Z,48.28
2023-05-04T12:14:26.000Z,51.84
2023-05-04T12:15:30.000Z,45.78
2023-05-04T12:16:34.000Z,47.0
2023-05-04T12:17:37.000Z,47.28
2023-05-04T12:18:41.000Z,48.28
2023-05-04T12:19:45.000Z,44.9
2023-05-04T12:20:49.000Z,44.06
2023-05-04T12:21:52.000Z,49.38
2023-05-04T12:22:56.000Z,45.21
2023-05-04T12:24:00.000Z,47.12
2023-05-04T12:25:04.000Z,46.97
2023-05-04T12:26:07.000Z,50.46
2023-05-04T12:27:11.000Z,49.21
2023-05-04T12:28:15.000Z,48.89
2023-05-04T12:29:19.000Z,44.9
2023-05-04T12:30:22.000Z,45.65
2023-05-04T12:31:26.000Z,45.06
2023-05-04T12:32:30.000Z,46.19
2023-05-04T12:33:34.000Z,50.09
2023-05-04T12:34:37.000Z,51.44
2023-05-04T12:35:41.000Z,49.19
2023-05-04T12:36:45.000Z,50.46
2023-05-04T12:37:49.000Z,47.72
2023-05-04T12:38:53.000Z,45.5
2023-05-04T12:39:56.000Z,45.94
2023-05-04T12:41:00.000Z,45.94
2023-05-04T12:42:04.000Z,45.46
2023-05-04T12:43:08.000Z,44.1
2023-05-04T12:44:12.000Z,44.32
2023-05-04T12:45:15.000Z,49.91
2023-05-04T12:46:19.000Z,48.96
2023-05-04T12:47:23.000Z,45.04
2023-05-04T12:48:27.000Z,47.42
2023-05-04T12:49:30.000Z,45.79
2023-05-04T12:50:34.000Z,47.09
2023-05-04T12:51:38.000Z,44.09
2023-05-04T12:52:42.000Z,44.32
2023-05-04T12:53:46.000Z,44.58
2023-05-04T12:54:49.000Z,47.58
2023-05-04T12:55:53.000Z,50.99
2023-05-04T12:56:57.000Z,46.46
2023-05-04T12:58:01.000Z,45.64
2023-05-04T12:59:05.000Z,46.24
2023-05-04T13:00:09.000Z,43.55
2023-05-04T13:01:12.000Z,44.48
2023-05-04T13:02:16.000Z,45.83
2023-05-04T13:03:20.000Z,47.5
2023-05-04T13:04:24.000Z,49.08
2023-05-04T13:05:27.000Z,47.78
2023-05-04T13:06:31.000Z,47.99
2023-05-04T13:07:35.000Z,46.88
2023-05-04T13:08:39.000Z,49.49
2023-05-04T13:09:42.000Z,45.96
2023-05-04T13:10:46.000Z,48.54
2023-05-04T13:11:50.000Z,49.82
2023-05-04T13:12:54.000Z,48.67
2023-05-04T13:13:58.000Z,46.83
2023-05-04T13:15:01.000Z,49.9
2023-05-04T13:16:05.000Z,44.33
2023-05-04T13:17:09.000Z,43.27
2023-05-04T13:18:13.000Z,42.85
2023-05-04T13:19:16.000Z,45.38
2023-05-04T13:20:20.000Z,45.1
2023-05-04T13:21:24.000Z,46.91
2023-05-04T13:22:27.000Z,44.8
2023-05-04T13:23:31.000Z,45.98
2023-05-04T13:24:35.000Z,47.31
2023-05-04T13:25:39.000Z,50.19
2023-05-04T13:26:42.000Z,50.49
2023-05-04T13:27:46.000Z,48.96
2023-05-04T13:28:50.000Z,48.66
2023-05-04T13:29:54.000Z,49.84
2023-05-04T13:30:58.000Z,47.92
2023-05-04T13:32:01.000Z,46.64
2023-05-04T13:33:05.000Z,47.0
2023-05-04T13:34:09.000Z,53.02
2023-05-04T13:35:13.000Z,49.29
2023-05-04T13:36:16.000Z,47.58
2023-05-04T13:37:20.000Z,48.69
2023-05-04T13:38:24.000Z,51.34
2023-05-04T13:39:28.000Z,51.82
2023-05-04T13:40:32.000Z,49.69
2023-05-04T13:41:35.000Z,49.57
2023-05-04T13:42:39.000Z,46.97
2023-05-04T13:43:48.000Z,46.12
2023-05-04T13:44:52.000Z,49.34